createdAt,value
2017-09-01T00:01:20.585Z,13.90
2017-09-01T00:03:46.861Z,13.80
2017-09-01T00:06:13.238Z,13.80
2017-09-01T00:08:39.539Z,13.70
2017-09-01T00:11:05.928Z,13.60
2017-09-01T00:13:32.287Z,13.60
2017-09-01T00:15:58.607Z,13.50
2017-09-01T00:18:24.906Z,13.50
2017-09-01T00:20:51.181Z,13.60
2017-09-01T00:23:17.496Z,13.60
2017-09-01T00:25:43.791Z,13.60
2017-09-01T00:28:10.220Z,13.60
2017-09-01T00:30:37.348Z,13.60
2017-09-01T00:33:03.675Z,13.60
2017-09-01T00:35:30.130Z,13.50
2017-09-01T00:37:56.461Z,13.50
2017-09-01T00:40:22.796Z,13.40
2017-09-01T00:42:49.095Z,13.40
2017-09-01T00:45:15.416Z,13.40
2017-09-01T00:47:41.714Z,13.30
2017-09-01T00:50:08.024Z,13.20
2017-09-01T00:52:34.343Z,13.20
2017-09-01T00:55:00.609Z,13.20
2017-09-01T00:57:26.919Z,13.20
2017-09-01T00:59:53.240Z,13.10
2017-09-01T01:02:19.500Z,13.10
2017-09-01T01:04:45.900Z,13.10
2017-09-01T01:07:12.188Z,13.10
2017-09-01T01:09:38.497Z,13.20
2017-09-01T01:12:04.795Z,13.40
2017-09-01T01:14:31.068Z,13.50
2017-09-01T01:16:57.385Z,13.50
2017-09-01T01:19:23.660Z,13.50
2017-09-01T01:21:49.949Z,13.50
2017-09-01T01:24:16.314Z,13.50
2017-09-01T01:26:42.601Z,13.50
2017-09-01T01:29:08.896Z,13.40
2017-09-01T01:31:35.172Z,13.50
2017-09-01T01:34:01.481Z,13.50
2017-09-01T01:36:27.819Z,13.70
2017-09-01T01:38:54.122Z,13.70
2017-09-01T01:41:20.437Z,13.70
2017-09-01T01:43:46.764Z,13.70
2017-09-01T01:46:13.134Z,13.60
2017-09-01T01:48:40.172Z,13.50
2017-09-01T01:51:07.196Z,13.50
2017-09-01T01:53:33.516Z,13.50
2017-09-01T01:55:59.808Z,13.50
2017-09-01T01:58:26.100Z,13.40
2017-09-01T02:00:52.384Z,13.40
2017-09-01T02:03:18.899Z,13.40
2017-09-01T02:05:45.223Z,13.40
2017-09-01T02:08:11.556Z,13.30
2017-09-01T02:10:37.851Z,13.30
2017-09-01T02:13:04.139Z,13.30
2017-09-01T02:15:30.480Z,13.20
2017-09-01T02:17:56.759Z,13.10
2017-09-01T02:20:23.059Z,13.10
2017-09-01T02:22:49.376Z,13.00
2017-09-01T02:25:15.648Z,13.00
2017-09-01T02:27:41.967Z,12.90
2017-09-01T02:30:08.252Z,13.10
2017-09-01T02:32:34.549Z,13.20
2017-09-01T02:35:00.849Z,13.20
2017-09-01T02:37:27.153Z,13.10
2017-09-01T02:39:53.481Z,13.10
2017-09-01T02:42:19.795Z,13.10
2017-09-01T02:44:46.093Z,13.10
2017-09-01T02:47:12.411Z,13.00
2017-09-01T02:49:38.735Z,13.00
2017-09-01T02:52:05.014Z,13.10
2017-09-01T02:54:31.536Z,13.20
2017-09-01T02:56:57.871Z,13.20
2017-09-01T02:59:24.181Z,13.20
2017-09-01T03:01:50.508Z,13.10
2017-09-01T03:04:16.789Z,13.00
2017-09-01T03:06:43.107Z,12.90
2017-09-01T03:09:09.563Z,12.80
2017-09-01T03:11:35.851Z,12.80
2017-09-01T03:14:02.164Z,12.70
2017-09-01T03:16:28.451Z,12.70
2017-09-01T03:18:54.728Z,12.60
2017-09-01T03:21:21.024Z,12.70
2017-09-01T03:23:47.313Z,12.80
2017-09-01T03:26:13.642Z,12.90
2017-09-01T03:28:39.936Z,13.00
2017-09-01T03:31:06.257Z,13.10
2017-09-01T03:33:32.628Z,13.10
2017-09-01T03:35:58.897Z,13.10
2017-09-01T03:38:25.217Z,13.00
2017-09-01T03:40:51.508Z,13.00
2017-09-01T03:43:17.833Z,13.00
2017-09-01T03:45:44.128Z,13.00
2017-09-01T03:48:10.471Z,13.00
2017-09-01T03:50:36.812Z,12.90
2017-09-01T03:53:03.095Z,12.90
2017-09-01T03:55:29.384Z,12.90
2017-09-01T03:57:55.652Z,12.80
2017-09-01T04:00:21.995Z,12.70
2017-09-01T04:02:48.263Z,12.60
2017-09-01T04:05:14.599Z,12.60
2017-09-01T04:07:40.896Z,12.60
2017-09-01T04:10:07.224Z,12.60
2017-09-01T04:12:33.512Z,12.60
2017-09-01T04:14:59.811Z,12.70
2017-09-01T04:17:26.120Z,12.70
2017-09-01T04:19:52.467Z,13.00
2017-09-01T04:22:18.779Z,13.20
2017-09-01T04:24:45.169Z,13.10
2017-09-01T04:27:11.483Z,12.90
2017-09-01T04:29:38.004Z,12.90
2017-09-01T04:32:04.304Z,12.90
2017-09-01T04:34:30.635Z,13.00
2017-09-01T04:36:56.946Z,13.00
2017-09-01T04:39:23.221Z,12.90
2017-09-01T04:41:49.548Z,12.80
2017-09-01T04:44:15.856Z,12.70
2017-09-01T04:46:42.161Z,12.60
2017-09-01T04:49:08.441Z,12.60
2017-09-01T04:51:34.767Z,12.60
2017-09-01T04:54:01.076Z,12.60
2017-09-01T04:56:27.407Z,12.60
2017-09-01T04:58:53.697Z,12.60
2017-09-01T05:01:20.071Z,12.70
2017-09-01T05:03:46.399Z,12.60
2017-09-01T05:06:12.707Z,12.60
2017-09-01T05:08:39.005Z,12.50
2017-09-01T05:11:05.368Z,12.50
2017-09-01T05:13:31.692Z,12.50
2017-09-01T05:15:57.972Z,12.50
2017-09-01T05:18:24.310Z,12.50
2017-09-01T05:20:50.583Z,12.50
2017-09-01T05:23:16.873Z,12.50
2017-09-01T05:25:43.188Z,12.50
2017-09-01T05:28:09.464Z,12.50
2017-09-01T05:30:35.788Z,12.60
2017-09-01T05:33:02.090Z,12.60
2017-09-01T05:35:28.496Z,12.60
2017-09-01T05:37:54.776Z,12.60
2017-09-01T05:40:21.093Z,12.70
2017-09-01T05:42:47.430Z,12.90
2017-09-01T05:45:13.756Z,13.10
2017-09-01T05:47:40.074Z,13.30
2017-09-01T05:50:06.420Z,13.60
2017-09-01T05:52:32.748Z,13.90
2017-09-01T05:54:59.269Z,14.20
2017-09-01T05:57:25.616Z,14.60
2017-09-01T05:59:51.940Z,14.80
2017-09-01T06:02:18.235Z,15.10
2017-09-01T06:04:44.564Z,15.40
2017-09-01T06:07:10.852Z,15.90
2017-09-01T06:09:37.148Z,16.50
2017-09-01T06:12:03.462Z,17.40
2017-09-01T06:14:29.974Z,18.40
2017-09-01T06:16:56.334Z,19.10
2017-09-01T06:19:22.671Z,19.30
2017-09-01T06:21:49.027Z,19.10
2017-09-01T06:24:15.342Z,19.00
2017-09-01T06:26:41.732Z,19.00
2017-09-01T06:29:08.169Z,19.00
2017-09-01T06:31:34.479Z,18.80
2017-09-01T06:34:00.760Z,18.70
2017-09-01T06:36:27.079Z,18.60
2017-09-01T06:38:53.496Z,18.50
2017-09-01T06:41:19.844Z,18.40
2017-09-01T06:43:46.188Z,18.60
2017-09-01T06:46:12.497Z,19.20
2017-09-01T06:48:38.759Z,20.10
2017-09-01T06:51:05.064Z,21.30
2017-09-01T06:53:31.355Z,22.80
2017-09-01T06:55:57.756Z,23.90
2017-09-01T06:58:24.046Z,24.80
2017-09-01T07:00:50.374Z,25.50
2017-09-01T07:03:16.736Z,25.80
2017-09-01T07:05:43.034Z,25.60
2017-09-01T07:08:09.367Z,25.30
2017-09-01T07:10:35.803Z,25.10
2017-09-01T07:13:02.167Z,25.00
2017-09-01T07:15:28.514Z,24.90
2017-09-01T07:17:54.828Z,24.70
2017-09-01T07:20:21.133Z,24.40
2017-09-01T07:22:47.425Z,23.70
2017-09-01T07:25:14.652Z,22.60
2017-09-01T07:27:41.007Z,22.60
2017-09-01T07:30:07.344Z,22.40
2017-09-01T07:32:34.009Z,22.40
2017-09-01T07:35:00.315Z,22.70
2017-09-01T07:37:26.683Z,22.90
2017-09-01T07:39:52.967Z,23.20
2017-09-01T07:42:19.244Z,23.60
2017-09-01T07:44:45.609Z,24.30
2017-09-01T07:47:11.957Z,24.80
2017-09-01T07:49:38.279Z,25.10
2017-09-01T07:52:04.611Z,25.00
2017-09-01T07:54:30.952Z,25.20
2017-09-01T07:56:57.250Z,25.60
2017-09-01T07:59:23.589Z,26.30
2017-09-01T08:01:49.980Z,26.70
2017-09-01T08:04:23.643Z,26.80
2017-09-01T08:06:49.976Z,26.70
2017-09-01T08:09:16.429Z,26.80
2017-09-01T08:11:42.699Z,27.10
2017-09-01T08:14:09.068Z,27.10
2017-09-01T08:16:35.396Z,26.80
2017-09-01T08:19:01.876Z,26.60
2017-09-01T08:21:28.181Z,26.40
2017-09-01T08:23:54.555Z,26.20
2017-09-01T08:26:20.866Z,25.70
2017-09-01T08:28:47.234Z,25.70
2017-09-01T08:31:13.544Z,25.70
2017-09-01T08:33:39.867Z,25.80
2017-09-01T08:36:06.185Z,26.70
2017-09-01T08:38:32.507Z,28.10
2017-09-01T08:40:58.841Z,29.40
2017-09-01T08:43:25.272Z,30.20
2017-09-01T08:45:51.614Z,30.50
2017-09-01T08:48:18.011Z,30.50
2017-09-01T08:50:44.340Z,30.70
2017-09-01T08:53:10.677Z,30.70
2017-09-01T08:55:36.992Z,30.60
2017-09-01T08:58:03.304Z,30.20
2017-09-01T09:00:29.639Z,29.90
2017-09-01T09:02:55.997Z,29.70
2017-09-01T09:05:22.484Z,29.80
2017-09-01T09:07:48.776Z,29.80
2017-09-01T09:10:15.055Z,29.80
2017-09-01T09:12:41.396Z,29.80
2017-09-01T09:15:07.703Z,29.60
2017-09-01T09:17:34.276Z,29.40
2017-09-01T09:20:00.560Z,29.20
2017-09-01T09:22:26.885Z,29.40
2017-09-01T09:24:53.256Z,29.80
2017-09-01T09:27:19.713Z,30.50
2017-09-01T09:29:46.137Z,31.10
2017-09-01T09:32:12.465Z,31.00
2017-09-01T09:34:39.006Z,30.60
2017-09-01T09:37:05.280Z,30.20
2017-09-01T09:39:31.604Z,29.70
2017-09-01T09:41:57.906Z,29.20
2017-09-01T09:44:24.236Z,29.00
2017-09-01T09:46:50.541Z,29.20
2017-09-01T09:49:16.851Z,29.00
2017-09-01T09:51:43.328Z,28.80
2017-09-01T09:54:09.653Z,28.30
2017-09-01T09:56:36.040Z,27.80
2017-09-01T09:59:02.335Z,27.40
2017-09-01T10:01:28.671Z,26.90
2017-09-01T10:03:54.975Z,26.70
2017-09-01T10:06:22.251Z,26.30
2017-09-01T10:08:48.540Z,26.30
2017-09-01T10:11:14.813Z,25.90
2017-09-01T10:13:41.139Z,25.50
2017-09-01T10:16:07.442Z,25.40
2017-09-01T10:18:33.776Z,25.20
2017-09-01T10:21:00.135Z,25.20
2017-09-01T10:23:26.584Z,25.20
2017-09-01T10:25:52.903Z,25.20
2017-09-01T10:28:19.191Z,25.20
2017-09-01T10:30:45.600Z,25.00
2017-09-01T10:33:11.880Z,25.10
2017-09-01T10:35:38.176Z,25.00
2017-09-01T10:38:04.549Z,24.90
2017-09-01T10:40:31.120Z,24.80
2017-09-01T10:42:57.712Z,24.90
2017-09-01T10:45:24.023Z,25.00
2017-09-01T10:48:03.449Z,24.60
2017-09-01T10:50:41.991Z,24.50
2017-09-01T10:53:20.815Z,24.30
2017-09-01T10:55:59.471Z,24.20
2017-09-01T10:58:25.806Z,24.30
2017-09-01T11:00:52.146Z,24.50
2017-09-01T11:03:18.521Z,24.50
2017-09-01T11:05:44.844Z,24.50
2017-09-01T11:08:11.145Z,24.40
2017-09-01T11:10:37.509Z,24.10
2017-09-01T11:13:03.987Z,23.90
2017-09-01T11:15:30.412Z,24.00
2017-09-01T11:17:56.687Z,24.10
2017-09-01T11:20:28.988Z,24.30
2017-09-01T11:23:01.680Z,24.30
2017-09-01T11:25:28.010Z,24.10
2017-09-01T11:27:54.360Z,23.40
2017-09-01T11:30:20.668Z,23.30
2017-09-01T11:32:47.008Z,22.90
2017-09-01T11:35:13.306Z,22.50
2017-09-01T11:37:39.608Z,22.40
2017-09-01T11:40:05.933Z,22.30
2017-09-01T11:42:32.232Z,22.40
2017-09-01T11:44:58.520Z,22.50
2017-09-01T11:47:24.803Z,22.50
2017-09-01T11:49:51.122Z,22.20
2017-09-01T11:52:17.447Z,22.20
2017-09-01T11:54:43.897Z,22.20
2017-09-01T11:57:10.193Z,22.10
2017-09-01T11:59:36.491Z,21.90
2017-09-01T12:02:02.867Z,21.90
2017-09-01T12:04:29.172Z,21.80
2017-09-01T12:06:55.463Z,21.70
2017-09-01T12:09:21.771Z,21.70
2017-09-01T12:11:48.059Z,21.70
2017-09-01T12:14:14.392Z,21.70
2017-09-01T12:16:40.735Z,21.70
2017-09-01T12:19:07.085Z,21.60
2017-09-01T12:21:33.400Z,21.50
2017-09-01T12:23:59.706Z,21.40
2017-09-01T12:26:26.000Z,21.40
2017-09-01T12:28:52.288Z,21.40
2017-09-01T12:31:18.578Z,21.50
2017-09-01T12:33:44.889Z,21.50
2017-09-01T12:36:11.180Z,21.50
2017-09-01T12:38:37.471Z,21.40
2017-09-01T12:41:03.749Z,21.40
2017-09-01T12:43:30.109Z,21.40
2017-09-01T12:45:56.398Z,21.30
2017-09-01T12:48:22.744Z,21.30
2017-09-01T12:50:49.050Z,21.20
2017-09-01T12:53:15.372Z,21.20
2017-09-01T12:55:42.040Z,21.20
2017-09-01T12:58:08.368Z,21.30
2017-09-01T13:00:34.660Z,21.30
2017-09-01T13:03:00.968Z,21.30
2017-09-01T13:05:27.268Z,21.30
2017-09-01T13:07:53.537Z,21.40
2017-09-01T13:10:20.060Z,21.40
2017-09-01T13:12:46.396Z,21.40
2017-09-01T13:15:12.737Z,21.30
2017-09-01T13:17:39.205Z,21.30
2017-09-01T13:20:05.489Z,21.30
2017-09-01T13:22:31.821Z,21.30
2017-09-01T13:24:58.105Z,21.20
2017-09-01T13:27:24.402Z,21.10
2017-09-01T13:29:50.716Z,21.10
2017-09-01T13:32:17.022Z,21.10
2017-09-01T13:34:43.337Z,21.10
2017-09-01T13:37:09.667Z,21.00
2017-09-01T13:39:36.012Z,21.00
2017-09-01T13:42:02.312Z,21.00
2017-09-01T13:44:28.612Z,21.00
2017-09-01T13:46:54.984Z,21.00
2017-09-01T13:49:22.033Z,21.00
2017-09-01T13:51:48.352Z,21.00
2017-09-01T13:54:14.668Z,21.10
2017-09-01T13:56:40.968Z,21.20
2017-09-01T13:59:07.392Z,21.30
2017-09-01T14:01:33.852Z,21.30
2017-09-01T14:04:00.183Z,21.20
2017-09-01T14:06:26.460Z,21.30
2017-09-01T14:08:52.849Z,21.30
2017-09-01T14:11:19.192Z,21.50
2017-09-01T14:13:45.504Z,21.60
2017-09-01T14:16:12.172Z,21.70
2017-09-01T14:18:38.457Z,21.70
2017-09-01T14:21:04.828Z,21.70
2017-09-01T14:23:31.135Z,21.80
2017-09-01T14:25:57.462Z,21.90
2017-09-01T14:28:23.752Z,22.00
2017-09-01T14:30:50.027Z,22.10
2017-09-01T14:33:16.348Z,22.10
2017-09-01T14:35:42.682Z,22.10
2017-09-01T14:38:09.009Z,22.10
2017-09-01T14:40:35.445Z,22.00
2017-09-01T14:43:01.874Z,21.80
2017-09-01T14:45:28.342Z,21.60
2017-09-01T14:47:54.649Z,21.50
2017-09-01T14:50:20.983Z,21.50
2017-09-01T14:52:47.312Z,21.50
2017-09-01T14:55:13.625Z,21.50
2017-09-01T14:57:39.973Z,21.60
2017-09-01T15:00:06.400Z,21.60
2017-09-01T15:02:32.711Z,21.60
2017-09-01T15:04:59.033Z,21.60
2017-09-01T15:07:25.392Z,21.70
2017-09-01T15:09:51.711Z,21.80
2017-09-01T15:12:18.016Z,21.80
2017-09-01T15:14:44.356Z,21.70
2017-09-01T15:17:10.680Z,21.70
2017-09-01T15:19:36.995Z,21.50
2017-09-01T15:22:03.353Z,21.50
2017-09-01T15:24:29.675Z,21.30
2017-09-01T15:26:56.012Z,21.10
2017-09-01T15:29:23.080Z,21.00
2017-09-01T15:31:49.416Z,21.00
2017-09-01T15:34:15.807Z,21.00
2017-09-01T15:36:42.163Z,20.90
2017-09-01T15:39:08.513Z,20.90
2017-09-01T15:41:35.133Z,20.90
2017-09-01T15:44:01.448Z,20.90
2017-09-01T15:46:27.752Z,21.00
2017-09-01T15:48:54.125Z,21.00
2017-09-01T15:51:20.421Z,21.10
2017-09-01T15:53:46.755Z,21.00
2017-09-01T15:56:13.113Z,21.00
2017-09-01T15:58:39.423Z,21.10
2017-09-01T16:01:05.775Z,21.20
2017-09-01T16:03:32.064Z,21.30
2017-09-01T16:05:58.393Z,21.40
2017-09-01T16:08:24.668Z,21.50
2017-09-01T16:10:50.963Z,21.50
2017-09-01T16:13:17.312Z,21.40
2017-09-01T16:15:43.604Z,21.40
2017-09-01T16:18:09.900Z,21.30
2017-09-01T16:20:36.280Z,21.10
2017-09-01T16:23:02.588Z,21.10
2017-09-01T16:25:28.908Z,21.00
2017-09-01T16:27:55.197Z,20.70
2017-09-01T16:30:21.639Z,20.50
2017-09-01T16:32:48.172Z,20.40
2017-09-01T16:35:14.538Z,20.40
2017-09-01T16:37:40.807Z,20.20
2017-09-01T16:40:07.956Z,19.90
2017-09-01T16:42:34.664Z,19.90
2017-09-01T16:45:00.944Z,19.80
2017-09-01T16:47:27.240Z,19.60
2017-09-01T16:49:53.542Z,19.60
2017-09-01T16:52:19.863Z,19.60
2017-09-01T16:54:46.132Z,19.70
2017-09-01T16:57:12.465Z,19.60
2017-09-01T16:59:38.817Z,19.40
2017-09-01T17:02:05.115Z,19.40
2017-09-01T17:04:31.435Z,19.50
2017-09-01T17:06:57.834Z,19.30
2017-09-01T17:09:24.263Z,19.20
2017-09-01T17:11:50.564Z,19.10
2017-09-01T17:14:16.864Z,19.00
2017-09-01T17:16:43.189Z,19.00
2017-09-01T17:19:09.512Z,19.20
2017-09-01T17:21:35.816Z,19.20
2017-09-01T17:24:02.136Z,19.20
2017-09-01T17:26:28.462Z,19.10
2017-09-01T17:28:54.812Z,19.10
2017-09-01T17:31:21.154Z,19.10
2017-09-01T17:33:47.497Z,18.90
2017-09-01T17:36:13.830Z,19.00
2017-09-01T17:38:40.159Z,18.90
2017-09-01T17:41:06.455Z,18.80
2017-09-01T17:43:32.763Z,19.00
2017-09-01T17:45:59.057Z,19.00
2017-09-01T17:48:25.383Z,18.80
2017-09-01T17:50:51.677Z,18.80
2017-09-01T17:53:17.964Z,18.70
2017-09-01T17:55:44.332Z,18.50
2017-09-01T17:58:10.675Z,18.30
2017-09-01T18:00:36.992Z,18.20
2017-09-01T18:03:03.364Z,18.10
2017-09-01T18:05:29.651Z,18.00
2017-09-01T18:07:56.021Z,17.90
2017-09-01T18:10:22.333Z,17.80
2017-09-01T18:12:48.677Z,17.90
2017-09-01T18:15:14.972Z,17.80
2017-09-01T18:17:41.280Z,17.70
2017-09-01T18:20:07.572Z,17.60
2017-09-01T18:22:33.896Z,17.50
2017-09-01T18:25:00.211Z,17.40
2017-09-01T18:27:26.516Z,17.40
2017-09-01T18:29:52.848Z,17.40
2017-09-01T18:32:19.165Z,17.40
2017-09-01T18:34:45.552Z,17.50
2017-09-01T18:37:11.877Z,17.50
2017-09-01T18:39:38.252Z,17.50
2017-09-01T18:42:04.607Z,17.50
2017-09-01T18:44:30.912Z,17.50
2017-09-01T18:46:57.215Z,17.50
2017-09-01T18:49:23.569Z,17.50
2017-09-01T18:51:51.355Z,17.30
2017-09-01T18:54:17.720Z,17.40
2017-09-01T18:56:44.156Z,17.30
2017-09-01T18:59:10.466Z,17.20
2017-09-01T19:01:36.796Z,17.10
2017-09-01T19:04:03.096Z,17.00
2017-09-01T19:06:29.450Z,16.90
2017-09-01T19:08:55.760Z,16.80
2017-09-01T19:11:22.093Z,16.80
2017-09-01T19:13:49.183Z,16.80
2017-09-01T19:16:15.560Z,16.80
2017-09-01T19:18:42.601Z,16.80
2017-09-01T19:21:09.152Z,16.80
2017-09-01T19:23:35.444Z,17.00
2017-09-01T19:26:01.761Z,17.10
2017-09-01T19:28:28.129Z,17.20
2017-09-01T19:30:54.435Z,17.20
2017-09-01T19:33:20.777Z,17.10
2017-09-01T19:35:47.098Z,17.00
2017-09-01T19:38:13.466Z,17.10
2017-09-01T19:40:39.929Z,17.10
2017-09-01T19:43:06.250Z,17.00
2017-09-01T19:45:32.581Z,17.20
2017-09-01T19:47:58.916Z,17.10
2017-09-01T19:50:25.213Z,17.00
2017-09-01T19:52:51.536Z,16.90
2017-09-01T19:55:17.916Z,16.80
2017-09-01T19:57:44.252Z,16.80
2017-09-01T20:00:10.568Z,16.60
2017-09-01T20:02:36.900Z,16.60
2017-09-01T20:05:03.196Z,16.50
2017-09-01T20:07:29.603Z,16.50
2017-09-01T20:09:56.055Z,16.30
2017-09-01T20:12:22.376Z,16.10
2017-09-01T20:14:48.752Z,16.00
2017-09-01T20:17:15.048Z,16.10
2017-09-01T20:19:41.412Z,16.00
2017-09-01T20:22:07.740Z,15.90
2017-09-01T20:24:34.244Z,15.80
2017-09-01T20:27:00.519Z,15.80
2017-09-01T20:29:26.824Z,15.80
2017-09-01T20:31:53.131Z,15.70
2017-09-01T20:34:19.421Z,15.50
2017-09-01T20:36:45.740Z,15.60
2017-09-01T20:39:12.047Z,15.60
2017-09-01T20:41:38.369Z,15.70
2017-09-01T20:44:04.684Z,15.70
2017-09-01T20:46:30.978Z,15.60
2017-09-01T20:48:57.376Z,15.50
2017-09-01T20:51:23.781Z,15.50
2017-09-01T20:53:50.112Z,15.50
2017-09-01T20:56:17.136Z,15.50
2017-09-01T20:58:43.467Z,15.50
2017-09-01T21:01:09.771Z,15.60
2017-09-01T21:03:36.113Z,15.60
2017-09-01T21:06:02.436Z,15.60
2017-09-01T21:08:28.703Z,15.60
2017-09-01T21:10:55.028Z,15.50
2017-09-01T21:13:21.333Z,15.60
2017-09-01T21:15:47.881Z,15.60
2017-09-01T21:18:14.276Z,15.60
2017-09-01T21:20:40.620Z,15.60
2017-09-01T21:23:06.909Z,15.70
2017-09-01T21:25:33.225Z,15.70
2017-09-01T21:28:00.291Z,15.60
2017-09-01T21:30:26.706Z,15.60
2017-09-01T21:32:53.001Z,15.60
2017-09-01T21:35:19.326Z,15.60
2017-09-01T21:37:45.756Z,15.50
2017-09-01T21:40:12.172Z,15.50
2017-09-01T21:42:38.474Z,15.40
2017-09-01T21:45:04.783Z,15.40
2017-09-01T21:47:31.119Z,15.40
2017-09-01T21:49:57.447Z,15.40
2017-09-01T21:52:23.777Z,15.40
2017-09-01T21:54:50.082Z,15.40
2017-09-01T21:57:16.424Z,15.40
2017-09-01T21:59:42.785Z,15.40
2017-09-01T22:02:09.130Z,15.60
2017-09-01T22:04:35.469Z,15.60
2017-09-01T22:07:01.751Z,15.60
2017-09-01T22:09:28.074Z,15.60
2017-09-01T22:11:54.404Z,15.50
2017-09-01T22:14:20.750Z,15.50
2017-09-01T22:16:47.095Z,15.40
2017-09-01T22:19:13.556Z,15.50
2017-09-01T22:21:39.889Z,15.70
2017-09-01T22:24:06.368Z,15.60
2017-09-01T22:26:32.854Z,15.60
2017-09-01T22:29:06.195Z,15.50
2017-09-01T22:31:32.521Z,15.40
2017-09-01T22:33:59.571Z,15.30
2017-09-01T22:36:25.904Z,15.30
2017-09-01T22:38:52.197Z,15.20
2017-09-01T22:41:18.521Z,15.20
2017-09-01T22:43:44.826Z,15.20
2017-09-01T22:46:11.137Z,15.20
2017-09-01T22:48:37.425Z,15.20
2017-09-01T22:51:03.701Z,15.10
2017-09-01T22:53:29.999Z,15.10
2017-09-01T22:55:56.296Z,15.10
2017-09-01T22:58:22.631Z,15.00
2017-09-01T23:00:48.923Z,15.00
2017-09-01T23:03:15.293Z,15.00
2017-09-01T23:05:41.586Z,15.20
2017-09-01T23:08:07.909Z,15.10
2017-09-01T23:10:34.194Z,15.00
2017-09-01T23:13:00.545Z,15.00
2017-09-01T23:15:26.864Z,14.90
2017-09-01T23:17:53.152Z,14.80
2017-09-01T23:20:19.455Z,14.80
2017-09-01T23:22:45.915Z,14.70
2017-09-01T23:25:12.340Z,14.70
2017-09-01T23:27:38.845Z,14.70
2017-09-01T23:30:05.116Z,14.70
2017-09-01T23:32:31.421Z,14.70
2017-09-01T23:34:57.720Z,14.70
2017-09-01T23:37:24.243Z,14.60
2017-09-01T23:39:50.643Z,14.60
2017-09-01T23:42:16.945Z,14.60
2017-09-01T23:44:43.256Z,14.60
2017-09-01T23:47:09.584Z,14.60
2017-09-01T23:49:35.894Z,14.60
2017-09-01T23:52:02.262Z,14.60
2017-09-01T23:54:28.562Z,14.60
2017-09-01T23:56:54.867Z,14.70
2017-09-01T23:59:21.248Z,14.70
